Nikata — 2IXB8 — position and weather

sailwx.info

Track history (hours):
 
Tides and Currents Weather Stations Pressure Air Temp Water Temp Dewpoint Dewpoint Depression Visibility Wind Speed Wind Dir Waves Ship Positions

Nikata

Last reported at 2017-Oct-10 15:53 UTC. Time now 2017-Oct-18 15:12 UTC.
Position N 36°05' E 014°46'.

Length 35 m; draft 6 m.

Type: Sailing vessel. MMSI: 235113489.

Date/timePositionNaut miles runAvg speedWind from/ knotsBaromVisibWave heightAir tempDewpointWater temp
2017-Oct-10 15:53N 36°05' E 014°46'512.4
2017-Oct-10 15:30N 36°02' E 014°42'611.7
2017-Oct-10 15:00N 35°58' E 014°36'6 0.7
2017-Oct-10 06:00N 35°53' E 014°31'0 0.0
2017-Oct-10 05:30N 35°53' E 014°31'0 0.0
2017-Oct-09 06:46N 35°53' E 014°31'0 0.0
2017-Oct-09 06:20N 35°53' E 014°31'1 1.0
2017-Oct-09 05:50N 35°54' E 014°31'2 6.5
2017-Oct-09 05:30N 35°55' E 014°33'5 8.9
2017-Oct-09 05:00N 35°59' E 014°36'4 8.4
2017-Oct-09 04:30N 36°03' E 014°39'4 8.2
2017-Oct-09 04:00N 36°06' E 014°42'5 9.9
2017-Oct-09 03:30N 36°10' E 014°46'2410.5
2017-Oct-09 01:12N 36°29' E 015°03'3 9.6
2017-Oct-09 00:53N 36°32' E 015°05'57 8.0
2017-Oct-08 17:44N 37°29' E 015°06'5 3.5
2017-Oct-08 16:13N 37°33' E 015°10'2 8.2
2017-Oct-08 15:57N 37°35' E 015°12'4 8.4
2017-Oct-08 15:31N 37°39' E 015°13'5 8.7
2017-Oct-08 14:57N 37°43' E 015°15'4 9.1
2017-Oct-08 14:30N 37°47' E 015°16'4 7.4
2017-Oct-08 14:00N 37°51' E 015°18'4 7.3
2017-Oct-08 13:30N 37°54' E 015°21'4 8.8
2017-Oct-08 13:00N 37°57' E 015°24'510.1
2017-Oct-08 12:30N 38°01' E 015°28'510.2
2017-Oct-08 12:00N 38°05' E 015°32'5 9.0
2017-Oct-08 11:30N 38°09' E 015°34'611.3
2017-Oct-08 11:00N 38°15' E 015°37'4 8.1
2017-Oct-08 10:30N 38°18' E 015°39'510.1
2017-Oct-08 09:59N 38°20' E 015°32'5 9.6
2017-Oct-08 09:30N 38°21' E 015°26'5 9.3
2017-Oct-08 09:00N 38°22' E 015°21'5 9.4
2017-Oct-08 08:30N 38°23' E 015°15'5 9.4
2017-Oct-08 08:00N 38°24' E 015°09'5 9.3
2017-Oct-08 07:30N 38°25' E 015°03'5 9.4
2017-Oct-08 07:00N 38°26' E 014°57'0 0.6
2017-Oct-08 06:27N 38°26' E 014°57'0 0.0
2017-Oct-08 05:54N 38°26' E 014°57'0 0.0
2017-Oct-08 05:30N 38°26' E 014°57'0 0.0
2017-Oct-08 04:51N 38°26' E 014°57'0 0.1
2017-Oct-08 04:30N 38°26' E 014°57'0 0.0
2017-Oct-08 03:57N 38°26' E 014°57'0 0.0
2017-Oct-08 03:30N 38°26' E 014°57'0 0.0
2017-Oct-08 02:48N 38°26' E 014°57'0 0.1
2017-Oct-08 02:15N 38°26' E 014°57'0 0.0
2017-Oct-08 01:57N 38°26' E 014°57'0 0.0
2017-Oct-08 00:45N 38°26' E 014°57'0 0.0
2017-Oct-08 00:30N 38°26' E 014°57'0 0.0
2017-Oct-07 23:36N 38°26' E 014°57'0 0.0
2017-Oct-07 23:27N 38°26' E 014°57'0 0.0
2017-Oct-07 22:57N 38°26' E 014°57'0 0.0
2017-Oct-07 22:30N 38°26' E 014°57'0 0.0
2017-Oct-07 21:57N 38°26' E 014°57'0 0.0
2017-Oct-07 21:27N 38°26' E 014°57'0 0.0
2017-Oct-07 21:00N 38°26' E 014°57'0 0.0
2017-Oct-07 20:30N 38°26' E 014°57'0 0.0
2017-Oct-07 19:57N 38°26' E 014°57'0 0.0
2017-Oct-07 19:30N 38°26' E 014°57'0 0.0
2017-Oct-07 18:45N 38°26' E 014°57'0 0.1
2017-Oct-07 18:30N 38°26' E 014°57'0 0.1
2017-Oct-07 17:57N 38°26' E 014°57'0 0.0
2017-Oct-07 17:30N 38°26' E 014°57'0 0.0
2017-Oct-07 16:51N 38°26' E 014°57'0 0.0
2017-Oct-07 16:30N 38°26' E 014°57'0 0.0
2017-Oct-07 15:54N 38°26' E 014°57'0 0.1
2017-Oct-07 15:27N 38°26' E 014°57'0 0.0
2017-Oct-07 15:00N 38°26' E 014°57'1 1.9
2017-Oct-07 14:30N 38°26' E 014°58'612.0
2017-Oct-07 14:00N 38°28' E 015°06'510.7
2017-Oct-07 13:30N 38°32' E 015°10'4 7.9
2017-Oct-07 13:00N 38°36' E 015°10'3 5.2
2017-Oct-07 12:30N 38°36' E 015°07'3 5.5
2017-Oct-07 12:00N 38°38' E 015°04'0 0.1
2017-Oct-07 11:30N 38°38' E 015°04'0 0.0
2017-Oct-07 11:00N 38°38' E 015°04'0 0.0
2017-Oct-07 10:31N 38°38' E 015°04'0 0.0
2017-Oct-07 10:00N 38°38' E 015°04'0 0.0
2017-Oct-07 09:30N 38°38' E 015°04'0 0.0
2017-Oct-07 09:01N 38°38' E 015°04'0 0.0
2017-Oct-07 08:31N 38°38' E 015°04'0 0.0
2017-Oct-07 08:01N 38°38' E 015°04'0 0.1
2017-Oct-07 07:30N 38°38' E 015°04'0 0.1
2017-Oct-07 06:47N 38°38' E 015°04'0 0.1
2017-Oct-07 06:29N 38°38' E 015°04'0 0.1
2017-Oct-07 05:59N 38°38' E 015°04'0 0.1
2017-Oct-07 05:26N 38°38' E 015°04'0 0.1
2017-Oct-07 04:50N 38°38' E 015°04'0 0.0
2017-Oct-07 04:26N 38°38' E 015°04'0 0.0
2017-Oct-07 03:56N 38°38' E 015°04'0 0.0
2017-Oct-07 03:26N 38°38' E 015°04'0 0.0
2017-Oct-07 02:56N 38°38' E 015°04'0 0.1
2017-Oct-07 02:20N 38°38' E 015°04'0 0.1
2017-Oct-07 01:56N 38°38' E 015°04'0 0.0
2017-Oct-07 01:26N 38°38' E 015°04'0 0.0
2017-Oct-07 00:56N 38°38' E 015°04'0 0.1
2017-Oct-07 00:26N 38°38' E 015°04'0 0.0
2017-Oct-06 23:56N 38°38' E 015°04'0 0.0
2017-Oct-06 23:26N 38°38' E 015°04'0 0.0
2017-Oct-06 22:20N 38°38' E 015°04'0 0.0
2017-Oct-06 21:56N 38°38' E 015°04'0 0.0
2017-Oct-06 21:26N 38°38' E 015°04'0 0.0
2017-Oct-06 20:50N 38°38' E 015°04'0 0.0
2017-Oct-06 20:26N 38°38' E 015°04'0 0.0
2017-Oct-06 19:50N 38°38' E 015°04'0 0.0
2017-Oct-06 19:20N 38°38' E 015°04'0 0.0
2017-Oct-06 18:56N 38°38' E 015°04'0 0.0
2017-Oct-06 18:20N 38°38' E 015°04'0 0.0
2017-Oct-06 17:59N 38°38' E 015°04'0 0.0
2017-Oct-06 17:23N 38°38' E 015°04'0 0.0
2017-Oct-06 16:59N 38°38' E 015°04'1 1.6
2017-Oct-06 16:28N 38°38' E 015°05'0 0.0
2017-Oct-06 15:46N 38°38' E 015°05'0 0.1
2017-Oct-06 15:22N 38°38' E 015°05'0 0.1
2017-Oct-06 14:19N 38°38' E 015°05'0 0.0
2017-Oct-06 13:58N 38°38' E 015°05'0 0.0
2017-Oct-06 13:10N 38°38' E 015°05'0 0.0
2017-Oct-06 12:58N 38°38' E 015°05'0 0.0
2017-Oct-06 12:16N 38°38' E 015°05'0 0.0
2017-Oct-06 11:22N 38°38' E 015°05'0 0.0
2017-Oct-06 10:52N 38°38' E 015°05'0 0.0
2017-Oct-06 10:16N 38°38' E 015°05'0 0.0
2017-Oct-06 09:51N 38°38' E 015°05'1 1.8
2017-Oct-06 09:31N 38°39' E 015°05'2 4.2
2017-Oct-06 08:59N 38°40' E 015°07'4 6.8
2017-Oct-06 08:28N 38°43' E 015°09'3 5.7
2017-Oct-06 08:01N 38°45' E 015°12'4 6.8
2017-Oct-06 07:27N 38°48' E 015°15'1 0.3
2017-Oct-06 05:44N 38°48' E 015°15'0 0.0
2017-Oct-06 05:20N 38°48' E 015°15'0 0.0
2017-Oct-06 04:59N 38°48' E 015°15'0 0.0
2017-Oct-06 03:59N 38°48' E 015°15'0 0.0
2017-Oct-06 03:26N 38°48' E 015°15'0 0.0
2017-Oct-06 02:56N 38°48' E 015°15'0 0.0
2017-Oct-06 02:20N 38°48' E 015°15'0 0.0
2017-Oct-06 01:56N 38°48' E 015°15'0 0.0
2017-Oct-06 00:44N 38°48' E 015°15'0 0.0
2017-Oct-06 00:20N 38°48' E 015°15'0 0.0
2017-Oct-05 23:59N 38°48' E 015°15'0 0.0
2017-Oct-05 23:17N 38°48' E 015°15'0 0.0
2017-Oct-05 22:56N 38°48' E 015°15'0 0.0
2017-Oct-05 22:26N 38°48' E 015°15'0 0.0
2017-Oct-05 21:56N 38°48' E 015°15'0 0.0
2017-Oct-05 21:26N 38°48' E 015°15'0 0.0
2017-Oct-05 20:59N 38°48' E 015°15'0 0.0
2017-Oct-05 19:38N 38°48' E 015°15'0 0.0
2017-Oct-05 19:30N 38°48' E 015°15'3 4.0
2017-Oct-05 18:45N 38°48' E 015°11'1 0.5
2017-Oct-05 17:32N 38°48' E 015°11'0 7.8
2017-Oct-05 17:29N 38°48' E 015°11'4 7.5
2017-Oct-05 17:00N 38°45' E 015°08'9 6.2
2017-Oct-05 15:30N 38°40' E 014°58'5 9.4
2017-Oct-05 15:00N 38°37' E 014°53'4 0.8
2017-Oct-05 10:34N 38°35' E 014°49'1 7.6
2017-Oct-05 10:29N 38°35' E 014°48'0 0.7
2017-Oct-05 09:57N 38°35' E 014°48'7 3.8
2017-Oct-05 08:14N 38°29' E 014°52'3 9.2
2017-Oct-05 07:57N 38°27' E 014°55'3 0.2
2017-Oct-04 15:19N 38°25' E 014°57'1 4.1
2017-Oct-04 15:00N 38°26' E 014°58'4 9.0
2017-Oct-04 14:30N 38°24' E 015°03'5 9.9
2017-Oct-04 14:01N 38°21' E 015°08'4 7.9
2017-Oct-04 13:30N 38°18' E 015°12'4 8.8
2017-Oct-04 13:00N 38°15' E 015°16'2 4.3
2017-Oct-04 12:30N 38°13' E 015°15'0 0.2
2017-Oct-04 11:55N 38°13' E 015°15'0 0.0
2017-Oct-04 11:25N 38°13' E 015°15'0 0.0
2017-Oct-04 10:55N 38°13' E 015°15'0 0.0
2017-Oct-04 10:25N 38°13' E 015°15'0 0.0
2017-Oct-04 09:55N 38°13' E 015°15'0 0.0
2017-Oct-04 09:25N 38°13' E 015°15'0 0.0
2017-Oct-04 08:55N 38°13' E 015°15'0 0.0
2017-Oct-04 08:25N 38°13' E 015°15'0 0.0
2017-Oct-04 07:55N 38°13' E 015°15'0 0.0
2017-Oct-04 07:25N 38°13' E 015°15'0 0.0
2017-Oct-04 06:55N 38°13' E 015°15'0 0.0
2017-Oct-04 06:25N 38°13' E 015°15'0 0.0
2017-Oct-04 05:55N 38°13' E 015°15'0 0.0
2017-Oct-04 05:25N 38°13' E 015°15'0 0.0
2017-Oct-04 04:55N 38°13' E 015°15'0 0.0
2017-Oct-04 04:25N 38°13' E 015°15'0 0.0
2017-Oct-04 03:55N 38°13' E 015°15'0 0.0
2017-Oct-04 03:25N 38°13' E 015°15'0 0.0
2017-Oct-04 02:55N 38°13' E 015°15'0 0.0
2017-Oct-04 02:25N 38°13' E 015°15'0 0.0
2017-Oct-04 01:55N 38°13' E 015°15'0 0.0
2017-Oct-04 01:25N 38°13' E 015°15'0 0.0
2017-Oct-04 00:55N 38°13' E 015°15'0 0.0
2017-Oct-04 00:25N 38°13' E 015°15'0 0.0
2017-Oct-03 23:55N 38°13' E 015°15'0 0.0
2017-Oct-03 23:25N 38°13' E 015°15'0 0.0
2017-Oct-03 22:55N 38°13' E 015°15'0 0.0
2017-Oct-03 22:25N 38°13' E 015°15'0 0.0
2017-Oct-03 21:55N 38°13' E 015°15'0 0.0
2017-Oct-03 21:25N 38°13' E 015°15'0 0.0
2017-Oct-03 20:55N 38°13' E 015°15'0 0.0
2017-Oct-03 20:25N 38°13' E 015°15'0 0.0
2017-Oct-03 19:55N 38°13' E 015°15'0 0.0
2017-Oct-03 19:25N 38°13' E 015°15'0 0.0
2017-Oct-03 18:55N 38°13' E 015°15'0 0.0
2017-Oct-03 18:25N 38°13' E 015°15'0 0.0
2017-Oct-03 17:55N 38°13' E 015°15'0 0.0
2017-Oct-03 17:25N 38°13' E 015°15'0 0.0
2017-Oct-03 16:55N 38°13' E 015°15'0 0.0
2017-Oct-03 16:25N 38°13' E 015°15'0 0.0
2017-Oct-03 15:55N 38°13' E 015°15'0 0.0
2017-Oct-03 15:25N 38°13' E 015°15'0 0.0
2017-Oct-03 14:55N 38°13' E 015°15'0 0.0
2017-Oct-03 13:55N 38°13' E 015°15'0 0.0
2017-Oct-03 13:25N 38°13' E 015°15'0 0.0
2017-Oct-03 12:55N 38°13' E 015°15'0 0.0
2017-Oct-03 12:25N 38°13' E 015°15'0 0.0
2017-Oct-03 11:55N 38°13' E 015°15'0 0.0
2017-Oct-03 11:25N 38°13' E 015°15'0 0.0
2017-Oct-03 10:55N 38°13' E 015°15'0 0.0
2017-Oct-03 10:25N 38°13' E 015°15'0 0.0
2017-Oct-03 09:55N 38°13' E 015°15'0 0.0
2017-Oct-03 09:25N 38°13' E 015°15'0 0.0
2017-Oct-03 08:55N 38°13' E 015°15'0 0.0
2017-Oct-03 08:25N 38°13' E 015°15'0 0.0
2017-Oct-03 07:55N 38°13' E 015°15'0 0.0
2017-Oct-03 07:25N 38°13' E 015°15'0 0.0
2017-Oct-03 06:55N 38°13' E 015°15'0 0.0
2017-Oct-03 06:25N 38°13' E 015°15'0 0.0
2017-Oct-03 05:55N 38°13' E 015°15'0 0.0
2017-Oct-03 05:25N 38°13' E 015°15'0 0.0
2017-Oct-03 04:55N 38°13' E 015°15'0 0.0
2017-Oct-03 04:25N 38°13' E 015°15'0 0.0
2017-Oct-03 03:55N 38°13' E 015°15'0 0.0
2017-Oct-03 03:25N 38°13' E 015°15'0 0.0
2017-Oct-03 02:55N 38°13' E 015°15'0 0.0
2017-Oct-03 02:25N 38°13' E 015°15'0 0.0
2017-Oct-03 01:55N 38°13' E 015°15'0 0.0
2017-Oct-03 01:25N 38°13' E 015°15'0 0.0
2017-Oct-03 00:55N 38°13' E 015°15'0 0.0
2017-Oct-03 00:25N 38°13' E 015°15'0 0.0
2017-Oct-02 23:55N 38°13' E 015°15'0 0.0
2017-Oct-02 23:25N 38°13' E 015°15'0 0.0
2017-Oct-02 22:55N 38°13' E 015°15'0 0.0
2017-Oct-02 22:25N 38°13' E 015°15'0 0.0
2017-Oct-02 21:55N 38°13' E 015°15'0 0.0
2017-Oct-02 21:25N 38°13' E 015°15'0 0.0
2017-Oct-02 20:55N 38°13' E 015°15'0 0.0
2017-Oct-02 20:25N 38°13' E 015°15'0 0.0
2017-Oct-02 19:55N 38°13' E 015°15'0 0.0
2017-Oct-02 19:25N 38°13' E 015°15'0 0.0
2017-Oct-02 18:55N 38°13' E 015°15'0 0.0
2017-Oct-02 18:25N 38°13' E 015°15'0 0.0
2017-Oct-02 18:01N 38°13' E 015°15'0 0.0
2017-Oct-02 17:25N 38°13' E 015°15'0 0.0
2017-Oct-02 16:55N 38°13' E 015°15'0 0.0
2017-Oct-02 16:30N 38°13' E 015°15'0 0.0
2017-Oct-02 15:55N 38°13' E 015°15'0 0.0
2017-Oct-02 15:25N 38°13' E 015°15'0 0.0
2017-Oct-02 15:01N 38°13' E 015°15'0 0.0
2017-Oct-02 14:31N 38°13' E 015°15'0 0.0
2017-Oct-02 14:01N 38°13' E 015°15'0 0.0
2017-Oct-02 13:25N 38°13' E 015°15'0 0.0
2017-Oct-02 12:55N 38°13' E 015°15'0 0.0
2017-Oct-02 12:30N 38°13' E 015°15'0 0.0
2017-Oct-02 11:55N 38°13' E 015°15'0 0.0
2017-Oct-02 11:25N 38°13' E 015°15'0 0.0
2017-Oct-02 10:55N 38°13' E 015°15'0 0.0
2017-Oct-02 10:31N 38°13' E 015°15'0 0.0
2017-Oct-02 09:55N 38°13' E 015°15'0 0.0
2017-Oct-02 09:25N 38°13' E 015°15'0 0.0
2017-Oct-02 09:01N 38°13' E 015°15'0 0.0
2017-Oct-02 08:31N 38°13' E 015°15'0 0.0
2017-Oct-02 08:01N 38°13' E 015°15'0 0.0
2017-Oct-02 07:31N 38°13' E 015°15'0 0.0
2017-Oct-02 07:01N 38°13' E 015°15'0 0.0
2017-Oct-02 06:31N 38°13' E 015°15'0 0.0
2017-Oct-02 06:01N 38°13' E 015°15'0 0.0
2017-Oct-02 05:30N 38°13' E 015°15'0 0.0
2017-Oct-02 05:01N 38°13' E 015°15'0 0.0
2017-Oct-02 04:31N 38°13' E 015°15'0 0.0
2017-Oct-02 04:00N 38°13' E 015°15'0 0.0
2017-Oct-02 03:30N 38°13' E 015°15'0 0.0
2017-Oct-02 03:01N 38°13' E 015°15'0 0.0
2017-Oct-02 02:31N 38°13' E 015°15'0 0.0
2017-Oct-02 01:55N 38°13' E 015°15'0 0.0
2017-Oct-02 01:30N 38°13' E 015°15'0 0.0
2017-Oct-02 01:01N 38°13' E 015°15'0 0.0
2017-Oct-02 00:30N 38°13' E 015°15'0 0.0
2017-Oct-01 23:55N 38°13' E 015°15'0 0.0
2017-Oct-01 23:30N 38°13' E 015°15'0 0.0
2017-Oct-01 23:01N 38°13' E 015°15'0 0.0
2017-Oct-01 22:25N 38°13' E 015°15'0 0.0
2017-Oct-01 22:01N 38°13' E 015°15'0 0.0
2017-Oct-01 21:30N 38°13' E 015°15'0 0.0
2017-Oct-01 21:00N 38°13' E 015°15'0 0.0
2017-Oct-01 20:30N 38°13' E 015°15'0 0.0
2017-Oct-01 20:00N 38°13' E 015°15'0 0.0
2017-Oct-01 19:25N 38°13' E 015°15'0 0.0
2017-Oct-01 19:00N 38°13' E 015°15'0 0.0
2017-Oct-01 18:30N 38°13' E 015°15'0 0.0
2017-Oct-01 18:00N 38°13' E 015°15'0 0.0
2017-Oct-01 17:30N 38°13' E 015°15'0 0.0
2017-Oct-01 17:00N 38°13' E 015°15'0 0.0
2017-Oct-01 16:30N 38°13' E 015°15'0 0.0
2017-Oct-01 16:00N 38°13' E 015°15'0 0.0
2017-Oct-01 15:30N 38°13' E 015°15'0 0.0
2017-Oct-01 15:00N 38°13' E 015°15'0 0.5
2017-Oct-01 14:31N 38°13' E 015°15'0 0.0
2017-Oct-01 13:57N 38°13' E 015°15'0 0.0
2017-Oct-01 13:27N 38°13' E 015°15'0 0.0
2017-Oct-01 12:56N 38°13' E 015°15'0 0.0
2017-Oct-01 12:26N 38°13' E 015°15'0 0.0
2017-Oct-01 11:56N 38°13' E 015°15'0 0.0
2017-Oct-01 11:26N 38°13' E 015°15'0 0.0
2017-Oct-01 10:57N 38°13' E 015°15'0 0.0
2017-Oct-01 10:26N 38°13' E 015°15'0 0.0
2017-Oct-01 09:56N 38°13' E 015°15'0 0.0
2017-Oct-01 09:27N 38°13' E 015°15'0 0.0
2017-Oct-01 08:56N 38°13' E 015°15'0 0.0
2017-Oct-01 08:26N 38°13' E 015°15'0 0.0
2017-Oct-01 07:56N 38°13' E 015°15'0 0.0
2017-Oct-01 07:26N 38°13' E 015°15'0 0.0
2017-Oct-01 06:57N 38°13' E 015°15'0 0.0
2017-Oct-01 06:30N 38°13' E 015°15'0 0.0
2017-Oct-01 06:00N 38°13' E 015°15'2 3.4
2017-Oct-01 05:30N 38°15' E 015°16'4 8.2
2017-Oct-01 05:00N 38°18' E 015°12'5 9.3
2017-Oct-01 04:30N 38°20' E 015°07'5 9.3
2017-Oct-01 04:00N 38°21' E 015°01'1 2.5
2017-Oct-01 03:30N 38°22' E 014°60'0 0.0
2017-Oct-01 02:57N 38°22' E 014°60'  
Track history (hours):
 
Tides and Currents Weather Stations Pressure Air Temp Water Temp Dewpoint Dewpoint Depression Visibility Wind Speed Wind Dir Waves Ship Positions

Nikata

Last reported at 2017-Oct-10 15:53 UTC. Time now 2017-Oct-18 15:12 UTC.
Position N 36°05' E 014°46'.

Length 35 m; draft 6 m.

Type: Sailing vessel. MMSI: 235113489.

Date/timePositionNaut miles runAvg speedWind from/ knotsBaromVisibWave heightAir tempDewpointWater temp
2017-Oct-10 15:53N 36°05' E 014°46'512.4
2017-Oct-10 15:30N 36°02' E 014°42'611.7
2017-Oct-10 15:00N 35°58' E 014°36'6 0.7
2017-Oct-10 06:00N 35°53' E 014°31'0 0.0
2017-Oct-10 05:30N 35°53' E 014°31'0 0.0
2017-Oct-09 06:46N 35°53' E 014°31'0 0.0
2017-Oct-09 06:20N 35°53' E 014°31'1 1.0
2017-Oct-09 05:50N 35°54' E 014°31'2 6.5
2017-Oct-09 05:30N 35°55' E 014°33'5 8.9
2017-Oct-09 05:00N 35°59' E 014°36'4 8.4
2017-Oct-09 04:30N 36°03' E 014°39'4 8.2
2017-Oct-09 04:00N 36°06' E 014°42'5 9.9
2017-Oct-09 03:30N 36°10' E 014°46'2410.5
2017-Oct-09 01:12N 36°29' E 015°03'3 9.6
2017-Oct-09 00:53N 36°32' E 015°05'57 8.0
2017-Oct-08 17:44N 37°29' E 015°06'5 3.5
2017-Oct-08 16:13N 37°33' E 015°10'2 8.2
2017-Oct-08 15:57N 37°35' E 015°12'4 8.4
2017-Oct-08 15:31N 37°39' E 015°13'5 8.7
2017-Oct-08 14:57N 37°43' E 015°15'4 9.1
2017-Oct-08 14:30N 37°47' E 015°16'4 7.4
2017-Oct-08 14:00N 37°51' E 015°18'4 7.3
2017-Oct-08 13:30N 37°54' E 015°21'4 8.8
2017-Oct-08 13:00N 37°57' E 015°24'510.1
2017-Oct-08 12:30N 38°01' E 015°28'510.2
2017-Oct-08 12:00N 38°05' E 015°32'5 9.0
2017-Oct-08 11:30N 38°09' E 015°34'611.3
2017-Oct-08 11:00N 38°15' E 015°37'4 8.1
2017-Oct-08 10:30N 38°18' E 015°39'510.1
2017-Oct-08 09:59N 38°20' E 015°32'5 9.6
2017-Oct-08 09:30N 38°21' E 015°26'5 9.3
2017-Oct-08 09:00N 38°22' E 015°21'5 9.4
2017-Oct-08 08:30N 38°23' E 015°15'5 9.4
2017-Oct-08 08:00N 38°24' E 015°09'5 9.3
2017-Oct-08 07:30N 38°25' E 015°03'5 9.4
2017-Oct-08 07:00N 38°26' E 014°57'0 0.6
2017-Oct-08 06:27N 38°26' E 014°57'0 0.0
2017-Oct-08 05:54N 38°26' E 014°57'0 0.0
2017-Oct-08 05:30N 38°26' E 014°57'0 0.0
2017-Oct-08 04:51N 38°26' E 014°57'0 0.1
2017-Oct-08 04:30N 38°26' E 014°57'0 0.0
2017-Oct-08 03:57N 38°26' E 014°57'0 0.0
2017-Oct-08 03:30N 38°26' E 014°57'0 0.0
2017-Oct-08 02:48N 38°26' E 014°57'0 0.1
2017-Oct-08 02:15N 38°26' E 014°57'0 0.0
2017-Oct-08 01:57N 38°26' E 014°57'0 0.0
2017-Oct-08 00:45N 38°26' E 014°57'0 0.0
2017-Oct-08 00:30N 38°26' E 014°57'0 0.0
2017-Oct-07 23:36N 38°26' E 014°57'0 0.0
2017-Oct-07 23:27N 38°26' E 014°57'0 0.0
2017-Oct-07 22:57N 38°26' E 014°57'0 0.0
2017-Oct-07 22:30N 38°26' E 014°57'0 0.0
2017-Oct-07 21:57N 38°26' E 014°57'0 0.0
2017-Oct-07 21:27N 38°26' E 014°57'0 0.0
2017-Oct-07 21:00N 38°26' E 014°57'0 0.0
2017-Oct-07 20:30N 38°26' E 014°57'0 0.0
2017-Oct-07 19:57N 38°26' E 014°57'0 0.0
2017-Oct-07 19:30N 38°26' E 014°57'0 0.0
2017-Oct-07 18:45N 38°26' E 014°57'0 0.1
2017-Oct-07 18:30N 38°26' E 014°57'0 0.1
2017-Oct-07 17:57N 38°26' E 014°57'0 0.0
2017-Oct-07 17:30N 38°26' E 014°57'0 0.0
2017-Oct-07 16:51N 38°26' E 014°57'0 0.0
2017-Oct-07 16:30N 38°26' E 014°57'0 0.0
2017-Oct-07 15:54N 38°26' E 014°57'0 0.1
2017-Oct-07 15:27N 38°26' E 014°57'0 0.0
2017-Oct-07 15:00N 38°26' E 014°57'1 1.9
2017-Oct-07 14:30N 38°26' E 014°58'612.0
2017-Oct-07 14:00N 38°28' E 015°06'510.7
2017-Oct-07 13:30N 38°32' E 015°10'4 7.9
2017-Oct-07 13:00N 38°36' E 015°10'3 5.2
2017-Oct-07 12:30N 38°36' E 015°07'3 5.5
2017-Oct-07 12:00N 38°38' E 015°04'0 0.1
2017-Oct-07 11:30N 38°38' E 015°04'0 0.0
2017-Oct-07 11:00N 38°38' E 015°04'0 0.0
2017-Oct-07 10:31N 38°38' E 015°04'0 0.0
2017-Oct-07 10:00N 38°38' E 015°04'0 0.0
2017-Oct-07 09:30N 38°38' E 015°04'0 0.0
2017-Oct-07 09:01N 38°38' E 015°04'0 0.0
2017-Oct-07 08:31N 38°38' E 015°04'0 0.0
2017-Oct-07 08:01N 38°38' E 015°04'0 0.1
2017-Oct-07 07:30N 38°38' E 015°04'0 0.1
2017-Oct-07 06:47N 38°38' E 015°04'0 0.1
2017-Oct-07 06:29N 38°38' E 015°04'0 0.1
2017-Oct-07 05:59N 38°38' E 015°04'0 0.1
2017-Oct-07 05:26N 38°38' E 015°04'0 0.1
2017-Oct-07 04:50N 38°38' E 015°04'0 0.0
2017-Oct-07 04:26N 38°38' E 015°04'0 0.0
2017-Oct-07 03:56N 38°38' E 015°04'0 0.0
2017-Oct-07 03:26N 38°38' E 015°04'0 0.0
2017-Oct-07 02:56N 38°38' E 015°04'0 0.1
2017-Oct-07 02:20N 38°38' E 015°04'0 0.1
2017-Oct-07 01:56N 38°38' E 015°04'0 0.0
2017-Oct-07 01:26N 38°38' E 015°04'0 0.0
2017-Oct-07 00:56N 38°38' E 015°04'0 0.1
2017-Oct-07 00:26N 38°38' E 015°04'0 0.0
2017-Oct-06 23:56N 38°38' E 015°04'0 0.0
2017-Oct-06 23:26N 38°38' E 015°04'0 0.0
2017-Oct-06 22:20N 38°38' E 015°04'0 0.0
2017-Oct-06 21:56N 38°38' E 015°04'0 0.0
2017-Oct-06 21:26N 38°38' E 015°04'0 0.0
2017-Oct-06 20:50N 38°38' E 015°04'0 0.0
2017-Oct-06 20:26N 38°38' E 015°04'0 0.0
2017-Oct-06 19:50N 38°38' E 015°04'0 0.0
2017-Oct-06 19:20N 38°38' E 015°04'0 0.0
2017-Oct-06 18:56N 38°38' E 015°04'0 0.0
2017-Oct-06 18:20N 38°38' E 015°04'0 0.0
2017-Oct-06 17:59N 38°38' E 015°04'0 0.0
2017-Oct-06 17:23N 38°38' E 015°04'0 0.0
2017-Oct-06 16:59N 38°38' E 015°04'1 1.6
2017-Oct-06 16:28N 38°38' E 015°05'0 0.0
2017-Oct-06 15:46N 38°38' E 015°05'0 0.1
2017-Oct-06 15:22N 38°38' E 015°05'0 0.1
2017-Oct-06 14:19N 38°38' E 015°05'0 0.0
2017-Oct-06 13:58N 38°38' E 015°05'0 0.0
2017-Oct-06 13:10N 38°38' E 015°05'0 0.0
2017-Oct-06 12:58N 38°38' E 015°05'0 0.0
2017-Oct-06 12:16N 38°38' E 015°05'0 0.0
2017-Oct-06 11:22N 38°38' E 015°05'0 0.0
2017-Oct-06 10:52N 38°38' E 015°05'0 0.0
2017-Oct-06 10:16N 38°38' E 015°05'0 0.0
2017-Oct-06 09:51N 38°38' E 015°05'1 1.8
2017-Oct-06 09:31N 38°39' E 015°05'2 4.2
2017-Oct-06 08:59N 38°40' E 015°07'4 6.8
2017-Oct-06 08:28N 38°43' E 015°09'3 5.7
2017-Oct-06 08:01N 38°45' E 015°12'4 6.8
2017-Oct-06 07:27N 38°48' E 015°15'1 0.3
2017-Oct-06 05:44N 38°48' E 015°15'0 0.0
2017-Oct-06 05:20N 38°48' E 015°15'0 0.0
2017-Oct-06 04:59N 38°48' E 015°15'0 0.0
2017-Oct-06 03:59N 38°48' E 015°15'0 0.0
2017-Oct-06 03:26N 38°48' E 015°15'0 0.0
2017-Oct-06 02:56N 38°48' E 015°15'0 0.0
2017-Oct-06 02:20N 38°48' E 015°15'0 0.0
2017-Oct-06 01:56N 38°48' E 015°15'0 0.0
2017-Oct-06 00:44N 38°48' E 015°15'0 0.0
2017-Oct-06 00:20N 38°48' E 015°15'0 0.0
2017-Oct-05 23:59N 38°48' E 015°15'0 0.0
2017-Oct-05 23:17N 38°48' E 015°15'0 0.0
2017-Oct-05 22:56N 38°48' E 015°15'0 0.0
2017-Oct-05 22:26N 38°48' E 015°15'0 0.0
2017-Oct-05 21:56N 38°48' E 015°15'0 0.0
2017-Oct-05 21:26N 38°48' E 015°15'0 0.0
2017-Oct-05 20:59N 38°48' E 015°15'0 0.0
2017-Oct-05 19:38N 38°48' E 015°15'0 0.0
2017-Oct-05 19:30N 38°48' E 015°15'3 4.0
2017-Oct-05 18:45N 38°48' E 015°11'1 0.5
2017-Oct-05 17:32N 38°48' E 015°11'0 7.8
2017-Oct-05 17:29N 38°48' E 015°11'4 7.5
2017-Oct-05 17:00N 38°45' E 015°08'9 6.2
2017-Oct-05 15:30N 38°40' E 014°58'5 9.4
2017-Oct-05 15:00N 38°37' E 014°53'4 0.8
2017-Oct-05 10:34N 38°35' E 014°49'1 7.6
2017-Oct-05 10:29N 38°35' E 014°48'0 0.7
2017-Oct-05 09:57N 38°35' E 014°48'7 3.8
2017-Oct-05 08:14N 38°29' E 014°52'3 9.2
2017-Oct-05 07:57N 38°27' E 014°55'3 0.2
2017-Oct-04 15:19N 38°25' E 014°57'1 4.1
2017-Oct-04 15:00N 38°26' E 014°58'4 9.0
2017-Oct-04 14:30N 38°24' E 015°03'5 9.9
2017-Oct-04 14:01N 38°21' E 015°08'4 7.9
2017-Oct-04 13:30N 38°18' E 015°12'4 8.8
2017-Oct-04 13:00N 38°15' E 015°16'2 4.3
2017-Oct-04 12:30N 38°13' E 015°15'0 0.2
2017-Oct-04 11:55N 38°13' E 015°15'0 0.0
2017-Oct-04 11:25N 38°13' E 015°15'0 0.0
2017-Oct-04 10:55N 38°13' E 015°15'0 0.0
2017-Oct-04 10:25N 38°13' E 015°15'0 0.0
2017-Oct-04 09:55N 38°13' E 015°15'0 0.0
2017-Oct-04 09:25N 38°13' E 015°15'0 0.0
2017-Oct-04 08:55N 38°13' E 015°15'0 0.0
2017-Oct-04 08:25N 38°13' E 015°15'0 0.0
2017-Oct-04 07:55N 38°13' E 015°15'0 0.0
2017-Oct-04 07:25N 38°13' E 015°15'0 0.0
2017-Oct-04 06:55N 38°13' E 015°15'0 0.0
2017-Oct-04 06:25N 38°13' E 015°15'0 0.0
2017-Oct-04 05:55N 38°13' E 015°15'0 0.0
2017-Oct-04 05:25N 38°13' E 015°15'0 0.0
2017-Oct-04 04:55N 38°13' E 015°15'0 0.0
2017-Oct-04 04:25N 38°13' E 015°15'0 0.0
2017-Oct-04 03:55N 38°13' E 015°15'0 0.0
2017-Oct-04 03:25N 38°13' E 015°15'0 0.0
2017-Oct-04 02:55N 38°13' E 015°15'0 0.0
2017-Oct-04 02:25N 38°13' E 015°15'0 0.0
2017-Oct-04 01:55N 38°13' E 015°15'0 0.0
2017-Oct-04 01:25N 38°13' E 015°15'0 0.0
2017-Oct-04 00:55N 38°13' E 015°15'0 0.0
2017-Oct-04 00:25N 38°13' E 015°15'0 0.0
2017-Oct-03 23:55N 38°13' E 015°15'0 0.0
2017-Oct-03 23:25N 38°13' E 015°15'0 0.0
2017-Oct-03 22:55N 38°13' E 015°15'0 0.0
2017-Oct-03 22:25N 38°13' E 015°15'0 0.0
2017-Oct-03 21:55N 38°13' E 015°15'0 0.0
2017-Oct-03 21:25N 38°13' E 015°15'0 0.0
2017-Oct-03 20:55N 38°13' E 015°15'0 0.0
2017-Oct-03 20:25N 38°13' E 015°15'0 0.0
2017-Oct-03 19:55N 38°13' E 015°15'0 0.0
2017-Oct-03 19:25N 38°13' E 015°15'0 0.0
2017-Oct-03 18:55N 38°13' E 015°15'0 0.0
2017-Oct-03 18:25N 38°13' E 015°15'0 0.0
2017-Oct-03 17:55N 38°13' E 015°15'0 0.0
2017-Oct-03 17:25N 38°13' E 015°15'0 0.0
2017-Oct-03 16:55N 38°13' E 015°15'0 0.0
2017-Oct-03 16:25N 38°13' E 015°15'0 0.0
2017-Oct-03 15:55N 38°13' E 015°15'0 0.0
2017-Oct-03 15:25N 38°13' E 015°15'0 0.0
2017-Oct-03 14:55N 38°13' E 015°15'0 0.0
2017-Oct-03 13:55N 38°13' E 015°15'0 0.0
2017-Oct-03 13:25N 38°13' E 015°15'0 0.0
2017-Oct-03 12:55N 38°13' E 015°15'0 0.0
2017-Oct-03 12:25N 38°13' E 015°15'0 0.0
2017-Oct-03 11:55N 38°13' E 015°15'0 0.0
2017-Oct-03 11:25N 38°13' E 015°15'0 0.0
2017-Oct-03 10:55N 38°13' E 015°15'0 0.0
2017-Oct-03 10:25N 38°13' E 015°15'0 0.0
2017-Oct-03 09:55N 38°13' E 015°15'0 0.0
2017-Oct-03 09:25N 38°13' E 015°15'0 0.0
2017-Oct-03 08:55N 38°13' E 015°15'0 0.0
2017-Oct-03 08:25N 38°13' E 015°15'0 0.0
2017-Oct-03 07:55N 38°13' E 015°15'0 0.0
2017-Oct-03 07:25N 38°13' E 015°15'0 0.0
2017-Oct-03 06:55N 38°13' E 015°15'0 0.0
2017-Oct-03 06:25N 38°13' E 015°15'0 0.0
2017-Oct-03 05:55N 38°13' E 015°15'0 0.0
2017-Oct-03 05:25N 38°13' E 015°15'0 0.0
2017-Oct-03 04:55N 38°13' E 015°15'0 0.0
2017-Oct-03 04:25N 38°13' E 015°15'0 0.0
2017-Oct-03 03:55N 38°13' E 015°15'0 0.0
2017-Oct-03 03:25N 38°13' E 015°15'0 0.0
2017-Oct-03 02:55N 38°13' E 015°15'0 0.0
2017-Oct-03 02:25N 38°13' E 015°15'0 0.0
2017-Oct-03 01:55N 38°13' E 015°15'0 0.0
2017-Oct-03 01:25N 38°13' E 015°15'0 0.0
2017-Oct-03 00:55N 38°13' E 015°15'0 0.0
2017-Oct-03 00:25N 38°13' E 015°15'0 0.0
2017-Oct-02 23:55N 38°13' E 015°15'0 0.0
2017-Oct-02 23:25N 38°13' E 015°15'0 0.0
2017-Oct-02 22:55N 38°13' E 015°15'0 0.0
2017-Oct-02 22:25N 38°13' E 015°15'0 0.0
2017-Oct-02 21:55N 38°13' E 015°15'0 0.0
2017-Oct-02 21:25N 38°13' E 015°15'0 0.0
2017-Oct-02 20:55N 38°13' E 015°15'0 0.0
2017-Oct-02 20:25N 38°13' E 015°15'0 0.0
2017-Oct-02 19:55N 38°13' E 015°15'0 0.0
2017-Oct-02 19:25N 38°13' E 015°15'0 0.0
2017-Oct-02 18:55N 38°13' E 015°15'0 0.0
2017-Oct-02 18:25N 38°13' E 015°15'0 0.0
2017-Oct-02 18:01N 38°13' E 015°15'0 0.0
2017-Oct-02 17:25N 38°13' E 015°15'0 0.0
2017-Oct-02 16:55N 38°13' E 015°15'0 0.0
2017-Oct-02 16:30N 38°13' E 015°15'0 0.0
2017-Oct-02 15:55N 38°13' E 015°15'0 0.0
2017-Oct-02 15:25N 38°13' E 015°15'0 0.0
2017-Oct-02 15:01N 38°13' E 015°15'0 0.0
2017-Oct-02 14:31N 38°13' E 015°15'0 0.0
2017-Oct-02 14:01N 38°13' E 015°15'0 0.0
2017-Oct-02 13:25N 38°13' E 015°15'0 0.0
2017-Oct-02 12:55N 38°13' E 015°15'0 0.0
2017-Oct-02 12:30N 38°13' E 015°15'0 0.0
2017-Oct-02 11:55N 38°13' E 015°15'0 0.0
2017-Oct-02 11:25N 38°13' E 015°15'0 0.0
2017-Oct-02 10:55N 38°13' E 015°15'0 0.0
2017-Oct-02 10:31N 38°13' E 015°15'0 0.0
2017-Oct-02 09:55N 38°13' E 015°15'0 0.0
2017-Oct-02 09:25N 38°13' E 015°15'0 0.0
2017-Oct-02 09:01N 38°13' E 015°15'0 0.0
2017-Oct-02 08:31N 38°13' E 015°15'0 0.0
2017-Oct-02 08:01N 38°13' E 015°15'0 0.0
2017-Oct-02 07:31N 38°13' E 015°15'0 0.0
2017-Oct-02 07:01N 38°13' E 015°15'0 0.0
2017-Oct-02 06:31N 38°13' E 015°15'0 0.0
2017-Oct-02 06:01N 38°13' E 015°15'0 0.0
2017-Oct-02 05:30N 38°13' E 015°15'0 0.0
2017-Oct-02 05:01N 38°13' E 015°15'0 0.0
2017-Oct-02 04:31N 38°13' E 015°15'0 0.0
2017-Oct-02 04:00N 38°13' E 015°15'0 0.0
2017-Oct-02 03:30N 38°13' E 015°15'0 0.0
2017-Oct-02 03:01N 38°13' E 015°15'0 0.0
2017-Oct-02 02:31N 38°13' E 015°15'0 0.0
2017-Oct-02 01:55N 38°13' E 015°15'0 0.0
2017-Oct-02 01:30N 38°13' E 015°15'0 0.0
2017-Oct-02 01:01N 38°13' E 015°15'0 0.0
2017-Oct-02 00:30N 38°13' E 015°15'0 0.0
2017-Oct-01 23:55N 38°13' E 015°15'0 0.0
2017-Oct-01 23:30N 38°13' E 015°15'0 0.0
2017-Oct-01 23:01N 38°13' E 015°15'0 0.0
2017-Oct-01 22:25N 38°13' E 015°15'0 0.0
2017-Oct-01 22:01N 38°13' E 015°15'0 0.0
2017-Oct-01 21:30N 38°13' E 015°15'0 0.0
2017-Oct-01 21:00N 38°13' E 015°15'0 0.0
2017-Oct-01 20:30N 38°13' E 015°15'0 0.0
2017-Oct-01 20:00N 38°13' E 015°15'0 0.0
2017-Oct-01 19:25N 38°13' E 015°15'0 0.0
2017-Oct-01 19:00N 38°13' E 015°15'0 0.0
2017-Oct-01 18:30N 38°13' E 015°15'0 0.0
2017-Oct-01 18:00N 38°13' E 015°15'0 0.0
2017-Oct-01 17:30N 38°13' E 015°15'0 0.0
2017-Oct-01 17:00N 38°13' E 015°15'0 0.0
2017-Oct-01 16:30N 38°13' E 015°15'0 0.0
2017-Oct-01 16:00N 38°13' E 015°15'0 0.0
2017-Oct-01 15:30N 38°13' E 015°15'0 0.0
2017-Oct-01 15:00N 38°13' E 015°15'0 0.5
2017-Oct-01 14:31N 38°13' E 015°15'0 0.0
2017-Oct-01 13:57N 38°13' E 015°15'0 0.0
2017-Oct-01 13:27N 38°13' E 015°15'0 0.0
2017-Oct-01 12:56N 38°13' E 015°15'0 0.0
2017-Oct-01 12:26N 38°13' E 015°15'0 0.0
2017-Oct-01 11:56N 38°13' E 015°15'0 0.0
2017-Oct-01 11:26N 38°13' E 015°15'0 0.0
2017-Oct-01 10:57N 38°13' E 015°15'0 0.0
2017-Oct-01 10:26N 38°13' E 015°15'0 0.0
2017-Oct-01 09:56N 38°13' E 015°15'0 0.0
2017-Oct-01 09:27N 38°13' E 015°15'0 0.0
2017-Oct-01 08:56N 38°13' E 015°15'0 0.0
2017-Oct-01 08:26N 38°13' E 015°15'0 0.0
2017-Oct-01 07:56N 38°13' E 015°15'0 0.0
2017-Oct-01 07:26N 38°13' E 015°15'0 0.0
2017-Oct-01 06:57N 38°13' E 015°15'0 0.0
2017-Oct-01 06:30N 38°13' E 015°15'0 0.0
2017-Oct-01 06:00N 38°13' E 015°15'2 3.4
2017-Oct-01 05:30N 38°15' E 015°16'4 8.2
2017-Oct-01 05:00N 38°18' E 015°12'5 9.3
2017-Oct-01 04:30N 38°20' E 015°07'5 9.3
2017-Oct-01 04:00N 38°21' E 015°01'1 2.5
2017-Oct-01 03:30N 38°22' E 014°60'0 0.0
2017-Oct-01 02:57N 38°22' E 014°60'  

Dump ship's entire track history